sensor_id;sensor_type;location;lat;lon;timestamp;temperature;humidity
210;DHT22;90;48.810;9.120;2023-02-01T00:00:18;4.20;91.70
210;DHT22;90;48.810;9.120;2023-02-01T00:02:45;4.30;91.60
210;DHT22;90;48.810;9.120;2023-02-01T00:05:12;4.30;91.70
210;DHT22;90;48.810;9.120;2023-02-01T00:07:39;4.30;91.50
210;DHT22;90;48.810;9.120;2023-02-01T00:10:08;4.30;91.50
210;DHT22;90;48.810;9.120;2023-02-01T00:12:36;4.30;91.50
210;DHT22;90;48.810;9.120;2023-02-01T00:15:04;4.30;91.60
210;DHT22;90;48.810;9.120;2023-02-01T00:17:31;4.30;91.30
210;DHT22;90;48.810;9.120;2023-02-01T00:19:58;4.40;90.90
210;DHT22;90;48.810;9.120;2023-02-01T00:22:25;4.40;90.90
210;DHT22;90;48.810;9.120;2023-02-01T00:24:52;4.40;90.80
210;DHT22;90;48.810;9.120;2023-02-01T00:27:19;4.40;90.80
210;DHT22;90;48.810;9.120;2023-02-01T00:29:48;4.40;90.60
210;DHT22;90;48.810;9.120;2023-02-01T00:32:15;4.40;90.30
210;DHT22;90;48.810;9.120;2023-02-01T00:34:42;4.50;90.30
210;DHT22;90;48.810;9.120;2023-02-01T00:37:09;4.50;90.10
210;DHT22;90;48.810;9.120;2023-02-01T00:39:36;4.50;90.00
210;DHT22;90;48.810;9.120;2023-02-01T00:42:03;4.50;90.10
210;DHT22;90;48.810;9.120;2023-02-01T00:44:30;4.50;90.10
210;DHT22;90;48.810;9.120;2023-02-01T00:47:01;4.40;90.30
210;DHT22;90;48.810;9.120;2023-02-01T00:49:28;4.40;90.30
210;DHT22;90;48.810;9.120;2023-02-01T00:51:55;4.50;90.20
210;DHT22;90;48.810;9.120;2023-02-01T00:54:22;4.50;90.00
210;DHT22;90;48.810;9.120;2023-02-01T00:56:49;4.50;89.90
210;DHT22;90;48.810;9.120;2023-02-01T00:59:16;4.50;89.60
210;DHT22;90;48.810;9.120;2023-02-01T01:01:43;4.50;89.70
210;DHT22;90;48.810;9.120;2023-02-01T01:04:12;4.50;89.70
210;DHT22;90;48.810;9.120;2023-02-01T01:06:38;4.60;89.60
210;DHT22;90;48.810;9.120;2023-02-01T01:09:07;4.50;89.60
210;DHT22;90;48.810;9.120;2023-02-01T01:11:36;4.60;89.60
210;DHT22;90;48.810;9.120;2023-02-01T01:14:05;4.60;89.60
210;DHT22;90;48.810;9.120;2023-02-01T01:16:33;4.60;89.60
210;DHT22;90;48.810;9.120;2023-02-01T01:19:00;4.60;89.40
210;DHT22;90;48.810;9.120;2023-02-01T01:21:29;4.60;89.30
210;DHT22;90;48.810;9.120;2023-02-01T01:23:56;4.60;89.30
210;DHT22;90;48.810;9.120;2023-02-01T01:26:25;4.60;89.20
210;DHT22;90;48.810;9.120;2023-02-01T01:28:54;4.60;89.40
210;DHT22;90;48.810;9.120;2023-02-01T01:31:21;4.60;89.20
210;DHT22;90;48.810;9.120;2023-02-01T01:33:49;4.60;89.30
210;DHT22;90;48.810;9.120;2023-02-01T01:36:16;4.60;89.10
210;DHT22;90;48.810;9.120;2023-02-01T01:38:44;4.60;88.90
210;DHT22;90;48.810;9.120;2023-02-01T01:41:14;4.60;89.00
210;DHT22;90;48.810;9.120;2023-02-01T01:43:48;4.60;89.00
210;DHT22;90;48.810;9.120;2023-02-01T01:46:16;4.60;89.00
210;DHT22;90;48.810;9.120;2023-02-01T01:48:44;4.60;88.90
210;DHT22;90;48.810;9.120;2023-02-01T01:51:13;4.60;88.90
210;DHT22;90;48.810;9.120;2023-02-01T01:53:45;4.60;89.10
210;DHT22;90;48.810;9.120;2023-02-01T01:56:13;4.60;89.00
210;DHT22;90;48.810;9.120;2023-02-01T01:58:40;4.60;89.00
210;DHT22;90;48.810;9.120;2023-02-01T02:01:08;4.60;88.70
210;DHT22;90;48.810;9.120;2023-02-01T02:03:38;4.60;88.80
210;DHT22;90;48.810;9.120;2023-02-01T02:06:11;4.60;88.90
210;DHT22;90;48.810;9.120;2023-02-01T02:08:40;4.60;88.90
210;DHT22;90;48.810;9.120;2023-02-01T02:11:10;4.60;88.80
210;DHT22;90;48.810;9.120;2023-02-01T02:13:39;4.60;88.80
210;DHT22;90;48.810;9.120;2023-02-01T02:16:24;4.60;88.70
210;DHT22;90;48.810;9.120;2023-02-01T02:21:56;4.50;89.10
210;DHT22;90;48.810;9.120;2023-02-01T02:24:49;4.60;89.10
210;DHT22;90;48.810;9.120;2023-02-01T02:27:24;4.60;89.00
210;DHT22;90;48.810;9.120;2023-02-01T02:35:52;4.60;89.00
210;DHT22;90;48.810;9.120;2023-02-01T02:38:26;4.70;88.90
210;DHT22;90;48.810;9.120;2023-02-01T02:41:01;4.70;88.90
210;DHT22;90;48.810;9.120;2023-02-01T02:43:37;4.70;88.80
210;DHT22;90;48.810;9.120;2023-02-01T02:46:32;4.60;89.00
210;DHT22;90;48.810;9.120;2023-02-01T02:49:24;4.60;89.00
210;DHT22;90;48.810;9.120;2023-02-01T02:52:00;4.60;89.20
210;DHT22;90;48.810;9.120;2023-02-01T02:54:47;4.60;89.20
210;DHT22;90;48.810;9.120;2023-02-01T02:57:20;4.50;89.60
210;DHT22;90;48.810;9.120;2023-02-01T03:00:09;4.50;89.70
210;DHT22;90;48.810;9.120;2023-02-01T03:02:54;4.60;89.70
210;DHT22;90;48.810;9.120;2023-02-01T03:05:43;4.60;89.60
210;DHT22;90;48.810;9.120;2023-02-01T03:08:13;4.60;89.60
210;DHT22;90;48.810;9.120;2023-02-01T03:10:48;4.60;89.60
210;DHT22;90;48.810;9.120;2023-02-01T03:13:24;4.60;89.70
210;DHT22;90;48.810;9.120;2023-02-01T03:15:56;4.70;89.50
210;DHT22;90;48.810;9.120;2023-02-01T03:18:30;4.60;89.50
210;DHT22;90;48.810;9.120;2023-02-01T03:21:00;4.60;89.70
210;DHT22;90;48.810;9.120;2023-02-01T03:23:33;4.60;89.80
210;DHT22;90;48.810;9.120;2023-02-01T03:26:02;4.70;89.60
210;DHT22;90;48.810;9.120;2023-02-01T03:28:32;4.70;89.70
210;DHT22;90;48.810;9.120;2023-02-01T03:31:01;4.60;89.80
210;DHT22;90;48.810;9.120;2023-02-01T03:33:29;4.70;89.80
210;DHT22;90;48.810;9.120;2023-02-01T03:36:05;4.60;89.70
210;DHT22;90;48.810;9.120;2023-02-01T03:38:39;4.60;89.80
210;DHT22;90;48.810;9.120;2023-02-01T03:41:12;4.60;89.90
210;DHT22;90;48.810;9.120;2023-02-01T03:43:47;4.60;90.10
210;DHT22;90;48.810;9.120;2023-02-01T03:46:20;4.70;89.80
210;DHT22;90;48.810;9.120;2023-02-01T03:48:50;4.70;89.80
210;DHT22;90;48.810;9.120;2023-02-01T03:51:19;4.70;89.70
210;DHT22;90;48.810;9.120;2023-02-01T03:53:49;4.70;89.70
210;DHT22;90;48.810;9.120;2023-02-01T03:56:18;4.70;89.60
210;DHT22;90;48.810;9.120;2023-02-01T03:58:46;4.80;89.60
210;DHT22;90;48.810;9.120;2023-02-01T04:01:25;4.80;89.70
210;DHT22;90;48.810;9.120;2023-02-01T04:03:52;4.80;89.80
210;DHT22;90;48.810;9.120;2023-02-01T04:06:19;4.70;90.20
210;DHT22;90;48.810;9.120;2023-02-01T04:08:47;4.80;90.20
210;DHT22;90;48.810;9.120;2023-02-01T04:11:14;4.80;90.20
210;DHT22;90;48.810;9.120;2023-02-01T04:13:41;4.80;90.00
210;DHT22;90;48.810;9.120;2023-02-01T04:16:08;4.80;89.80
210;DHT22;90;48.810;9.120;2023-02-01T04:18:35;4.90;89.50
210;DHT22;90;48.810;9.120;2023-02-01T04:21:02;4.90;89.40
210;DHT22;90;48.810;9.120;2023-02-01T04:23:29;4.90;89.40
210;DHT22;90;48.810;9.120;2023-02-01T04:26:00;4.90;88.80
210;DHT22;90;48.810;9.120;2023-02-01T04:28:28;4.90;89.30
210;DHT22;90;48.810;9.120;2023-02-01T04:30:55;4.90;89.50
210;DHT22;90;48.810;9.120;2023-02-01T04:33:22;4.80;89.70
210;DHT22;90;48.810;9.120;2023-02-01T04:35:49;4.90;89.50
210;DHT22;90;48.810;9.120;2023-02-01T04:38:16;4.90;89.20
210;DHT22;90;48.810;9.120;2023-02-01T04:40:46;4.90;89.10
210;DHT22;90;48.810;9.120;2023-02-01T04:43:14;5.00;89.00
210;DHT22;90;48.810;9.120;2023-02-01T04:45:41;4.90;88.70
210;DHT22;90;48.810;9.120;2023-02-01T04:48:13;5.00;88.40
210;DHT22;90;48.810;9.120;2023-02-01T04:50:39;5.00;88.40
210;DHT22;90;48.810;9.120;2023-02-01T04:53:06;5.00;88.00
210;DHT22;90;48.810;9.120;2023-02-01T04:55:33;5.00;87.90
210;DHT22;90;48.810;9.120;2023-02-01T04:58:00;5.00;87.90
210;DHT22;90;48.810;9.120;2023-02-01T05:00:28;5.00;87.70
210;DHT22;90;48.810;9.120;2023-02-01T05:02:55;5.00;87.80
210;DHT22;90;48.810;9.120;2023-02-01T05:05:22;5.10;87.70
210;DHT22;90;48.810;9.120;2023-02-01T05:07:49;5.00;87.90
210;DHT22;90;48.810;9.120;2023-02-01T05:10:16;5.10;87.60
210;DHT22;90;48.810;9.120;2023-02-01T05:12:43;5.10;87.60
210;DHT22;90;48.810;9.120;2023-02-01T05:15:29;5.10;87.70
210;DHT22;90;48.810;9.120;2023-02-01T05:17:56;5.10;87.50
210;DHT22;90;48.810;9.120;2023-02-01T05:20:24;5.10;87.60
210;DHT22;90;48.810;9.120;2023-02-01T05:22:51;5.10;87.70
210;DHT22;90;48.810;9.120;2023-02-01T05:25:18;5.10;87.50
210;DHT22;90;48.810;9.120;2023-02-01T05:27:45;5.10;87.30
210;DHT22;90;48.810;9.120;2023-02-01T05:30:12;5.10;87.30
210;DHT22;90;48.810;9.120;2023-02-01T05:32:41;5.10;87.30
210;DHT22;90;48.810;9.120;2023-02-01T05:35:08;5.10;87.40
210;DHT22;90;48.810;9.120;2023-02-01T05:37:35;5.10;87.00
210;DHT22;90;48.810;9.120;2023-02-01T05:40:03;5.10;87.30
210;DHT22;90;48.810;9.120;2023-02-01T05:42:30;5.10;87.40
210;DHT22;90;48.810;9.120;2023-02-01T05:44:57;5.20;87.20
210;DHT22;90;48.810;9.120;2023-02-01T05:47:24;5.10;87.70
210;DHT22;90;48.810;9.120;2023-02-01T05:49:53;5.20;87.70
210;DHT22;90;48.810;9.120;2023-02-01T05:52:20;5.20;87.20
210;DHT22;90;48.810;9.120;2023-02-01T05:54:47;5.20;87.30
210;DHT22;90;48.810;9.120;2023-02-01T05:57:14;5.20;87.80
210;DHT22;90;48.810;9.120;2023-02-01T05:59:41;5.10;88.60
210;DHT22;90;48.810;9.120;2023-02-01T06:02:10;5.20;89.50
210;DHT22;90;48.810;9.120;2023-02-01T06:04:37;5.20;89.70
210;DHT22;90;48.810;9.120;2023-02-01T06:07:07;5.10;90.40
210;DHT22;90;48.810;9.120;2023-02-01T06:09:35;5.10;90.50
210;DHT22;90;48.810;9.120;2023-02-01T06:12:02;5.00;90.70
210;DHT22;90;48.810;9.120;2023-02-01T06:14:29;5.00;90.50
210;DHT22;90;48.810;9.120;2023-02-01T06:16:56;5.00;90.10
210;DHT22;90;48.810;9.120;2023-02-01T06:19:23;5.00;90.10
210;DHT22;90;48.810;9.120;2023-02-01T06:21:50;5.00;89.80
210;DHT22;90;48.810;9.120;2023-02-01T06:24:19;5.10;89.60
210;DHT22;90;48.810;9.120;2023-02-01T06:26:46;5.10;89.20
210;DHT22;90;48.810;9.120;2023-02-01T06:29:13;5.20;88.90
210;DHT22;90;48.810;9.120;2023-02-01T06:31:40;5.20;88.40
210;DHT22;90;48.810;9.120;2023-02-01T06:34:07;5.30;88.20
210;DHT22;90;48.810;9.120;2023-02-01T06:36:35;5.20;87.70
210;DHT22;90;48.810;9.120;2023-02-01T06:39:02;5.20;87.90
210;DHT22;90;48.810;9.120;2023-02-01T06:41:30;5.20;88.00
210;DHT22;90;48.810;9.120;2023-02-01T06:44:00;5.20;88.10
210;DHT22;90;48.810;9.120;2023-02-01T06:46:27;5.30;88.20
210;DHT22;90;48.810;9.120;2023-02-01T06:48:54;5.30;87.80
210;DHT22;90;48.810;9.120;2023-02-01T06:51:22;5.30;87.40
210;DHT22;90;48.810;9.120;2023-02-01T06:53:50;5.40;87.50
210;DHT22;90;48.810;9.120;2023-02-01T06:56:17;5.40;86.80
210;DHT22;90;48.810;9.120;2023-02-01T06:58:45;5.40;86.50
210;DHT22;90;48.810;9.120;2023-02-01T07:01:13;5.50;86.30
210;DHT22;90;48.810;9.120;2023-02-01T07:03:41;5.50;85.80
210;DHT22;90;48.810;9.120;2023-02-01T07:06:09;5.50;85.40
210;DHT22;90;48.810;9.120;2023-02-01T07:08:39;5.50;85.20
210;DHT22;90;48.810;9.120;2023-02-01T07:11:08;5.50;85.00
210;DHT22;90;48.810;9.120;2023-02-01T07:13:36;5.60;85.00
210;DHT22;90;48.810;9.120;2023-02-01T07:16:08;5.70;87.20
210;DHT22;90;48.810;9.120;2023-02-01T07:18:35;5.70;84.50
210;DHT22;90;48.810;9.120;2023-02-01T07:21:02;5.70;84.20
210;DHT22;90;48.810;9.120;2023-02-01T07:23:29;5.70;83.70
210;DHT22;90;48.810;9.120;2023-02-01T07:25:57;5.70;83.70
210;DHT22;90;48.810;9.120;2023-02-01T07:28:26;5.70;84.00
210;DHT22;90;48.810;9.120;2023-02-01T07:30:53;5.60;84.10
210;DHT22;90;48.810;9.120;2023-02-01T07:33:23;5.70;84.00
210;DHT22;90;48.810;9.120;2023-02-01T07:35:51;5.60;83.80
210;DHT22;90;48.810;9.120;2023-02-01T07:38:18;5.70;83.70
210;DHT22;90;48.810;9.120;2023-02-01T07:40:47;5.70;83.60
210;DHT22;90;48.810;9.120;2023-02-01T07:43:14;5.60;83.60
210;DHT22;90;48.810;9.120;2023-02-01T07:45:41;5.60;83.50
210;DHT22;90;48.810;9.120;2023-02-01T07:48:08;5.60;83.40
210;DHT22;90;48.810;9.120;2023-02-01T07:50:37;5.70;83.10
210;DHT22;90;48.810;9.120;2023-02-01T07:53:04;5.70;82.80
210;DHT22;90;48.810;9.120;2023-02-01T07:55:31;5.70;82.80
210;DHT22;90;48.810;9.120;2023-02-01T07:57:58;5.70;82.40
210;DHT22;90;48.810;9.120;2023-02-01T08:00:26;6.10;84.40
210;DHT22;90;48.810;9.120;2023-02-01T08:03:09;6.00;81.50
210;DHT22;90;48.810;9.120;2023-02-01T08:05:38;5.90;81.90
210;DHT22;90;48.810;9.120;2023-02-01T08:08:06;5.80;81.80
210;DHT22;90;48.810;9.120;2023-02-01T08:10:33;5.90;81.80
210;DHT22;90;48.810;9.120;2023-02-01T08:13:01;5.90;81.90
210;DHT22;90;48.810;9.120;2023-02-01T08:15:28;5.80;81.90
210;DHT22;90;48.810;9.120;2023-02-01T08:17:56;5.80;82.20
210;DHT22;90;48.810;9.120;2023-02-01T08:20:24;5.80;82.20
210;DHT22;90;48.810;9.120;2023-02-01T08:22:54;5.80;82.10
210;DHT22;90;48.810;9.120;2023-02-01T08:25:21;5.80;81.90
210;DHT22;90;48.810;9.120;2023-02-01T08:27:49;5.80;81.90
210;DHT22;90;48.810;9.120;2023-02-01T08:30:17;5.90;82.00
210;DHT22;90;48.810;9.120;2023-02-01T08:32:45;5.90;81.30
210;DHT22;90;48.810;9.120;2023-02-01T08:35:12;5.90;81.00
210;DHT22;90;48.810;9.120;2023-02-01T08:37:39;6.10;80.60
210;DHT22;90;48.810;9.120;2023-02-01T08:40:10;6.10;79.90
210;DHT22;90;48.810;9.120;2023-02-01T08:42:40;6.20;79.90
210;DHT22;90;48.810;9.120;2023-02-01T08:45:20;6.20;79.60
210;DHT22;90;48.810;9.120;2023-02-01T08:47:49;6.20;79.80
210;DHT22;90;48.810;9.120;2023-02-01T08:50:18;6.20;79.40
210;DHT22;90;48.810;9.120;2023-02-01T08:52:45;6.10;79.30
210;DHT22;90;48.810;9.120;2023-02-01T08:55:15;6.10;79.30
210;DHT22;90;48.810;9.120;2023-02-01T08:57:42;6.20;79.20
210;DHT22;90;48.810;9.120;2023-02-01T09:00:13;6.10;79.10
210;DHT22;90;48.810;9.120;2023-02-01T09:02:41;6.10;79.50
210;DHT22;90;48.810;9.120;2023-02-01T09:05:08;6.10;79.20
210;DHT22;90;48.810;9.120;2023-02-01T09:07:36;6.10;79.30
210;DHT22;90;48.810;9.120;2023-02-01T09:10:04;6.10;79.50
210;DHT22;90;48.810;9.120;2023-02-01T09:12:33;6.10;79.30
210;DHT22;90;48.810;9.120;2023-02-01T09:15:00;6.00;79.70
210;DHT22;90;48.810;9.120;2023-02-01T09:17:29;6.10;79.90
210;DHT22;90;48.810;9.120;2023-02-01T09:19:56;6.10;80.00
210;DHT22;90;48.810;9.120;2023-02-01T09:22:24;6.00;80.20
210;DHT22;90;48.810;9.120;2023-02-01T09:24:51;6.00;80.60
210;DHT22;90;48.810;9.120;2023-02-01T09:27:19;6.00;80.60
210;DHT22;90;48.810;9.120;2023-02-01T09:29:51;6.00;80.70
210;DHT22;90;48.810;9.120;2023-02-01T09:32:19;6.10;80.10
210;DHT22;90;48.810;9.120;2023-02-01T09:34:46;6.00;80.20
210;DHT22;90;48.810;9.120;2023-02-01T09:37:13;6.10;79.80
210;DHT22;90;48.810;9.120;2023-02-01T09:39:41;6.10;79.80
210;DHT22;90;48.810;9.120;2023-02-01T09:42:25;6.10;79.60
210;DHT22;90;48.810;9.120;2023-02-01T09:45:10;6.10;79.10
210;DHT22;90;48.810;9.120;2023-02-01T09:47:47;6.20;79.00
210;DHT22;90;48.810;9.120;2023-02-01T09:50:19;6.20;79.10
210;DHT22;90;48.810;9.120;2023-02-01T09:52:54;6.20;81.00
210;DHT22;90;48.810;9.120;2023-02-01T09:55:27;6.30;78.80
210;DHT22;90;48.810;9.120;2023-02-01T09:58:00;6.30;78.30
210;DHT22;90;48.810;9.120;2023-02-01T10:00:31;6.30;77.70
210;DHT22;90;48.810;9.120;2023-02-01T10:03:00;6.30;77.50
210;DHT22;90;48.810;9.120;2023-02-01T10:05:43;6.30;77.80
210;DHT22;90;48.810;9.120;2023-02-01T10:08:21;6.40;77.30
210;DHT22;90;48.810;9.120;2023-02-01T10:10:55;6.30;76.90
210;DHT22;90;48.810;9.120;2023-02-01T10:13:35;6.30;77.60
210;DHT22;90;48.810;9.120;2023-02-01T10:16:14;6.30;77.40
210;DHT22;90;48.810;9.120;2023-02-01T10:18:55;6.30;77.30
210;DHT22;90;48.810;9.120;2023-02-01T10:21:32;6.30;77.00
210;DHT22;90;48.810;9.120;2023-02-01T10:24:20;6.30;76.20
210;DHT22;90;48.810;9.120;2023-02-01T10:26:55;6.40;76.20
210;DHT22;90;48.810;9.120;2023-02-01T10:29:29;6.40;76.20
210;DHT22;90;48.810;9.120;2023-02-01T10:31:59;6.40;76.20
210;DHT22;90;48.810;9.120;2023-02-01T10:34:29;6.40;75.10
210;DHT22;90;48.810;9.120;2023-02-01T10:37:01;6.40;75.10
210;DHT22;90;48.810;9.120;2023-02-01T10:39:29;6.40;75.10
210;DHT22;90;48.810;9.120;2023-02-01T10:41:56;6.40;75.40
210;DHT22;90;48.810;9.120;2023-02-01T10:44:26;6.40;75.30
210;DHT22;90;48.810;9.120;2023-02-01T10:46:54;6.40;75.10
210;DHT22;90;48.810;9.120;2023-02-01T10:49:33;6.40;75.10
210;DHT22;90;48.810;9.120;2023-02-01T10:52:11;6.50;75.00
210;DHT22;90;48.810;9.120;2023-02-01T10:54:40;6.40;75.40
210;DHT22;90;48.810;9.120;2023-02-01T10:57:08;6.40;74.80
210;DHT22;90;48.810;9.120;2023-02-01T10:59:35;6.40;74.90
210;DHT22;90;48.810;9.120;2023-02-01T11:02:16;6.40;74.80
210;DHT22;90;48.810;9.120;2023-02-01T11:04:47;6.50;75.00
210;DHT22;90;48.810;9.120;2023-02-01T11:07:19;6.50;74.90
210;DHT22;90;48.810;9.120;2023-02-01T11:09:50;6.50;74.90
210;DHT22;90;48.810;9.120;2023-02-01T11:12:28;6.50;74.70
210;DHT22;90;48.810;9.120;2023-02-01T11:15:13;6.50;74.20
210;DHT22;90;48.810;9.120;2023-02-01T11:17:44;6.50;73.40
210;DHT22;90;48.810;9.120;2023-02-01T11:20:17;6.40;73.60
210;DHT22;90;48.810;9.120;2023-02-01T11:22:48;6.40;73.90
210;DHT22;90;48.810;9.120;2023-02-01T11:25:19;6.40;73.90
210;DHT22;90;48.810;9.120;2023-02-01T11:27:48;6.30;73.60
210;DHT22;90;48.810;9.120;2023-02-01T11:30:17;6.30;74.20
210;DHT22;90;48.810;9.120;2023-02-01T11:32:47;6.30;73.40
210;DHT22;90;48.810;9.120;2023-02-01T11:35:18;6.40;73.40
210;DHT22;90;48.810;9.120;2023-02-01T11:37:52;6.40;72.80
210;DHT22;90;48.810;9.120;2023-02-01T11:40:27;6.40;72.70
210;DHT22;90;48.810;9.120;2023-02-01T11:42:56;6.40;73.00
210;DHT22;90;48.810;9.120;2023-02-01T11:45:28;6.40;72.70
210;DHT22;90;48.810;9.120;2023-02-01T11:47:57;6.50;72.20
210;DHT22;90;48.810;9.120;2023-02-01T11:50:34;6.40;72.10
210;DHT22;90;48.810;9.120;2023-02-01T11:53:25;6.50;72.10
210;DHT22;90;48.810;9.120;2023-02-01T11:56:08;6.50;71.80
210;DHT22;90;48.810;9.120;2023-02-01T11:58:52;6.60;70.20
210;DHT22;90;48.810;9.120;2023-02-01T12:04:52;6.60;70.80
210;DHT22;90;48.810;9.120;2023-02-01T12:07:25;6.50;69.80
210;DHT22;90;48.810;9.120;2023-02-01T12:10:04;6.50;70.30
210;DHT22;90;48.810;9.120;2023-02-01T12:12:39;6.50;70.60
210;DHT22;90;48.810;9.120;2023-02-01T12:15:23;6.40;71.00
210;DHT22;90;48.810;9.120;2023-02-01T12:18:32;6.40;70.90
210;DHT22;90;48.810;9.120;2023-02-01T12:21:22;6.40;71.10
210;DHT22;90;48.810;9.120;2023-02-01T12:24:08;6.40;70.90
210;DHT22;90;48.810;9.120;2023-02-01T12:26:52;6.40;70.50
210;DHT22;90;48.810;9.120;2023-02-01T12:29:46;6.40;70.30
210;DHT22;90;48.810;9.120;2023-02-01T12:32:25;7.00;88.10
210;DHT22;90;48.810;9.120;2023-02-01T12:35:13;7.10;69.60
210;DHT22;90;48.810;9.120;2023-02-01T12:37:54;6.80;69.80
210;DHT22;90;48.810;9.120;2023-02-01T12:40:37;6.60;70.90
210;DHT22;90;48.810;9.120;2023-02-01T12:43:12;6.50;72.00
210;DHT22;90;48.810;9.120;2023-02-01T12:45:51;6.40;71.70
210;DHT22;90;48.810;9.120;2023-02-01T12:48:27;6.30;72.40
210;DHT22;90;48.810;9.120;2023-02-01T12:50:57;6.40;72.70
210;DHT22;90;48.810;9.120;2023-02-01T12:53:33;6.40;72.70
210;DHT22;90;48.810;9.120;2023-02-01T12:56:09;6.40;72.90
210;DHT22;90;48.810;9.120;2023-02-01T12:58:42;6.40;73.30
210;DHT22;90;48.810;9.120;2023-02-01T13:01:15;6.30;74.00
210;DHT22;90;48.810;9.120;2023-02-01T13:03:50;6.30;74.60
210;DHT22;90;48.810;9.120;2023-02-01T13:06:21;6.30;75.30
210;DHT22;90;48.810;9.120;2023-02-01T13:08:53;6.30;75.50
210;DHT22;90;48.810;9.120;2023-02-01T13:11:28;6.20;75.70
210;DHT22;90;48.810;9.120;2023-02-01T13:14:00;6.20;75.90
210;DHT22;90;48.810;9.120;2023-02-01T13:16:31;6.20;75.50
210;DHT22;90;48.810;9.120;2023-02-01T13:19:08;6.20;75.40
210;DHT22;90;48.810;9.120;2023-02-01T13:21:40;6.20;75.10
210;DHT22;90;48.810;9.120;2023-02-01T13:24:23;6.20;74.40
210;DHT22;90;48.810;9.120;2023-02-01T13:26:54;6.20;74.80
210;DHT22;90;48.810;9.120;2023-02-01T13:29:23;6.20;74.50
210;DHT22;90;48.810;9.120;2023-02-01T13:32:01;6.20;74.50
210;DHT22;90;48.810;9.120;2023-02-01T13:34:59;6.30;74.30
210;DHT22;90;48.810;9.120;2023-02-01T13:40:37;6.40;73.70
210;DHT22;90;48.810;9.120;2023-02-01T13:43:12;6.40;73.80
210;DHT22;90;48.810;9.120;2023-02-01T13:45:45;6.30;73.80
210;DHT22;90;48.810;9.120;2023-02-01T13:48:20;6.30;74.60
210;DHT22;90;48.810;9.120;2023-02-01T13:50:52;6.20;75.80
210;DHT22;90;48.810;9.120;2023-02-01T13:53:26;6.20;76.50
210;DHT22;90;48.810;9.120;2023-02-01T13:56:01;6.10;76.60
210;DHT22;90;48.810;9.120;2023-02-01T13:58:35;6.00;77.00
210;DHT22;90;48.810;9.120;2023-02-01T14:01:32;6.00;76.90
210;DHT22;90;48.810;9.120;2023-02-01T14:04:02;6.00;77.30
210;DHT22;90;48.810;9.120;2023-02-01T14:06:40;6.00;77.10
210;DHT22;90;48.810;9.120;2023-02-01T14:09:30;5.90;77.00
210;DHT22;90;48.810;9.120;2023-02-01T14:11:59;6.00;76.90
210;DHT22;90;48.810;9.120;2023-02-01T14:15:20;6.10;76.80
210;DHT22;90;48.810;9.120;2023-02-01T14:17:48;6.20;75.30
210;DHT22;90;48.810;9.120;2023-02-01T14:20:46;6.80;91.30
210;DHT22;90;48.810;9.120;2023-02-01T14:23:23;6.90;74.20
210;DHT22;90;48.810;9.120;2023-02-01T14:26:16;6.70;73.10
210;DHT22;90;48.810;9.120;2023-02-01T14:28:49;6.60;73.40
210;DHT22;90;48.810;9.120;2023-02-01T14:31:43;6.40;73.60
210;DHT22;90;48.810;9.120;2023-02-01T14:34:25;6.40;74.10
210;DHT22;90;48.810;9.120;2023-02-01T14:36:57;6.30;74.20
210;DHT22;90;48.810;9.120;2023-02-01T14:39:35;6.30;74.00
210;DHT22;90;48.810;9.120;2023-02-01T14:42:12;6.20;74.00
210;DHT22;90;48.810;9.120;2023-02-01T14:44:40;6.20;74.30
210;DHT22;90;48.810;9.120;2023-02-01T14:47:28;6.20;74.80
210;DHT22;90;48.810;9.120;2023-02-01T14:52:44;6.20;75.30
210;DHT22;90;48.810;9.120;2023-02-01T14:55:16;6.10;76.00
210;DHT22;90;48.810;9.120;2023-02-01T14:57:48;6.10;76.30
210;DHT22;90;48.810;9.120;2023-02-01T15:00:21;6.10;76.40
210;DHT22;90;48.810;9.120;2023-02-01T15:02:52;6.10;76.40
210;DHT22;90;48.810;9.120;2023-02-01T15:05:37;6.10;76.10
210;DHT22;90;48.810;9.120;2023-02-01T15:08:11;6.10;76.10
210;DHT22;90;48.810;9.120;2023-02-01T15:10:43;6.10;75.90
210;DHT22;90;48.810;9.120;2023-02-01T15:13:22;6.10;75.30
210;DHT22;90;48.810;9.120;2023-02-01T15:16:04;6.10;75.20
210;DHT22;90;48.810;9.120;2023-02-01T15:18:33;6.10;75.40
210;DHT22;90;48.810;9.120;2023-02-01T15:21:02;6.10;75.50
210;DHT22;90;48.810;9.120;2023-02-01T15:23:29;6.10;75.80
210;DHT22;90;48.810;9.120;2023-02-01T15:25:56;6.10;75.40
210;DHT22;90;48.810;9.120;2023-02-01T15:28:25;6.20;75.10
210;DHT22;90;48.810;9.120;2023-02-01T15:30:55;6.20;75.30
210;DHT22;90;48.810;9.120;2023-02-01T15:33:22;6.10;75.20
210;DHT22;90;48.810;9.120;2023-02-01T15:35:52;6.20;75.20
210;DHT22;90;48.810;9.120;2023-02-01T15:38:34;6.10;75.70
210;DHT22;90;48.810;9.120;2023-02-01T15:41:07;6.20;75.70
210;DHT22;90;48.810;9.120;2023-02-01T15:43:37;6.20;74.90
210;DHT22;90;48.810;9.120;2023-02-01T15:46:09;6.10;75.30
210;DHT22;90;48.810;9.120;2023-02-01T15:48:39;6.20;74.80
210;DHT22;90;48.810;9.120;2023-02-01T15:51:14;6.20;74.40
210;DHT22;90;48.810;9.120;2023-02-01T15:53:48;6.20;73.50
210;DHT22;90;48.810;9.120;2023-02-01T15:56:16;6.20;73.90
210;DHT22;90;48.810;9.120;2023-02-01T15:58:53;6.20;74.00
210;DHT22;90;48.810;9.120;2023-02-01T16:01:20;6.20;74.00
210;DHT22;90;48.810;9.120;2023-02-01T16:03:48;6.20;73.60
210;DHT22;90;48.810;9.120;2023-02-01T16:06:29;6.30;73.60
210;DHT22;90;48.810;9.120;2023-02-01T16:09:02;6.30;73.00
210;DHT22;90;48.810;9.120;2023-02-01T16:11:31;6.20;72.30
210;DHT22;90;48.810;9.120;2023-02-01T16:13:59;6.20;72.30
210;DHT22;90;48.810;9.120;2023-02-01T16:16:28;6.20;72.40
210;DHT22;90;48.810;9.120;2023-02-01T16:18:55;6.20;72.20
210;DHT22;90;48.810;9.120;2023-02-01T16:21:22;6.20;72.60
210;DHT22;90;48.810;9.120;2023-02-01T16:23:51;6.20;72.30
210;DHT22;90;48.810;9.120;2023-02-01T16:26:18;6.20;72.30
210;DHT22;90;48.810;9.120;2023-02-01T16:28:46;6.30;72.00
210;DHT22;90;48.810;9.120;2023-02-01T16:31:15;6.30;72.00
210;DHT22;90;48.810;9.120;2023-02-01T16:33:46;6.20;71.90
210;DHT22;90;48.810;9.120;2023-02-01T16:36:17;6.20;71.70
210;DHT22;90;48.810;9.120;2023-02-01T16:38:45;6.60;70.40
210;DHT22;90;48.810;9.120;2023-02-01T16:41:17;6.60;70.40
210;DHT22;90;48.810;9.120;2023-02-01T16:43:45;6.40;71.20
210;DHT22;90;48.810;9.120;2023-02-01T16:46:23;6.40;71.20
210;DHT22;90;48.810;9.120;2023-02-01T16:48:53;6.30;71.70
210;DHT22;90;48.810;9.120;2023-02-01T16:51:42;6.30;71.80
210;DHT22;90;48.810;9.120;2023-02-01T16:54:19;6.30;72.00
210;DHT22;90;48.810;9.120;2023-02-01T16:56:49;6.40;71.70
210;DHT22;90;48.810;9.120;2023-02-01T16:59:18;6.30;71.70
210;DHT22;90;48.810;9.120;2023-02-01T17:01:46;6.30;71.80
210;DHT22;90;48.810;9.120;2023-02-01T17:04:14;6.30;71.80
210;DHT22;90;48.810;9.120;2023-02-01T17:06:42;6.20;71.80
210;DHT22;90;48.810;9.120;2023-02-01T17:09:16;6.30;71.60
210;DHT22;90;48.810;9.120;2023-02-01T17:11:43;6.30;71.70
210;DHT22;90;48.810;9.120;2023-02-01T17:14:16;6.20;71.50
210;DHT22;90;48.810;9.120;2023-02-01T17:16:46;6.30;71.40
210;DHT22;90;48.810;9.120;2023-02-01T17:19:15;6.30;71.30
210;DHT22;90;48.810;9.120;2023-02-01T17:21:45;6.30;71.40
210;DHT22;90;48.810;9.120;2023-02-01T17:24:14;6.30;71.50
210;DHT22;90;48.810;9.120;2023-02-01T17:26:42;6.30;71.50
210;DHT22;90;48.810;9.120;2023-02-01T17:29:10;6.30;71.50
210;DHT22;90;48.810;9.120;2023-02-01T17:31:41;6.30;71.60
210;DHT22;90;48.810;9.120;2023-02-01T17:34:10;6.30;71.70
210;DHT22;90;48.810;9.120;2023-02-01T17:36:42;6.30;71.50
210;DHT22;90;48.810;9.120;2023-02-01T17:39:10;6.40;71.60
210;DHT22;90;48.810;9.120;2023-02-01T17:41:57;6.30;71.90
210;DHT22;90;48.810;9.120;2023-02-01T17:44:24;6.30;72.00
210;DHT22;90;48.810;9.120;2023-02-01T17:46:53;6.30;72.00
210;DHT22;90;48.810;9.120;2023-02-01T17:49:22;6.30;72.00
210;DHT22;90;48.810;9.120;2023-02-01T17:51:49;6.20;72.30
210;DHT22;90;48.810;9.120;2023-02-01T17:54:16;6.30;72.50
210;DHT22;90;48.810;9.120;2023-02-01T17:56:44;6.30;72.80